Time;durP1;ratioP1;P1;durP2;ratioP2;P2;SDS_P1;SDS_P2;PMS_P1;PMS_P2;Temp;Humidity;BMP_temperature;BMP_pressure;BME280_temperature;BME280_humidity;BME280_pressure;Samples;Min_cycle;Max_cycle;Signal;HPM_P1;HPM_P2
2021/11/22 00:01:09;;;;;;;26.73;14.80;;;3.80;99.90;;;;;;5014622;28;20535;-76
2021/11/22 00:03:36;;;;;;;25.20;14.23;;;4.00;99.90;;;;;;5014949;28;20270;-76
2021/11/22 00:06:02;;;;;;;27.10;13.97;;;3.90;99.90;;;;;;5014566;28;20178;-76
2021/11/22 00:08:28;;;;;;;21.63;14.57;;;3.90;99.90;;;;;;5015066;28;20548;-76
2021/11/22 00:10:53;;;;;;;23.03;13.77;;;3.90;99.90;;;;;;5014764;28;20171;-76
2021/11/22 00:13:19;;;;;;;23.93;13.50;;;4.00;99.90;;;;;;5011231;28;20614;-76
2021/11/22 00:15:45;;;;;;;20.00;13.60;;;4.00;99.90;;;;;;5010581;28;20708;-76
2021/11/22 00:18:11;;;;;;;23.63;14.37;;;4.00;99.90;;;;;;5013370;28;20223;-76
2021/11/22 00:20:37;;;;;;;25.10;15.17;;;3.90;99.90;;;;;;5014018;28;20182;-76
2021/11/22 00:23:03;;;;;;;22.80;14.17;;;3.90;99.90;;;;;;5014415;28;20215;-76
2021/11/22 00:25:29;;;;;;;18.90;13.20;;;4.10;99.90;;;;;;5013426;28;20179;-76
2021/11/22 00:27:55;;;;;;;19.93;12.63;;;4.00;99.90;;;;;;5013253;28;20262;-77
2021/11/22 00:30:20;;;;;;;22.17;13.50;;;4.00;99.90;;;;;;5014519;28;20175;-77
2021/11/22 00:32:46;;;;;;;16.30;12.77;;;3.90;99.90;;;;;;5014398;28;20195;-77
2021/11/22 00:35:14;;;;;;;21.50;13.80;;;4.00;99.90;;;;;;5013278;28;20185;-76
2021/11/22 00:37:41;;;;;;;34.00;20.27;;;4.00;99.90;;;;;;5013118;28;20246;-78
2021/11/22 00:40:12;;;;;;;16.80;12.63;;;4.00;99.90;;;;;;5013423;28;20525;-77
2021/11/22 00:42:38;;;;;;;18.83;11.90;;;3.90;99.90;;;;;;5014486;28;20214;-76
2021/11/22 00:45:05;;;;;;;15.60;11.47;;;3.90;99.90;;;;;;5013022;28;20221;-76
2021/11/22 00:47:33;;;;;;;15.43;11.53;;;3.90;99.90;;;;;;5012972;28;20175;-77
2021/11/22 00:49:58;;;;;;;20.57;12.97;;;4.10;99.90;;;;;;5012861;28;20190;-76
2021/11/22 00:52:24;;;;;;;15.63;11.23;;;3.90;99.90;;;;;;5014535;28;20193;-77
2021/11/22 00:54:50;;;;;;;21.73;12.63;;;3.90;99.90;;;;;;5014020;28;20629;-77
2021/11/22 00:57:15;;;;;;;14.10;10.90;;;3.90;99.90;;;;;;5014437;28;20175;-76
2021/11/22 00:59:41;;;;;;;13.00;10.80;;;4.00;99.90;;;;;;5014012;28;20203;-76
2021/11/22 01:02:07;;;;;;;16.17;10.67;;;4.00;99.90;;;;;;5013187;28;20195;-76
2021/11/22 01:04:36;;;;;;;10.67;9.30;;;4.10;99.90;;;;;;5012724;28;20633;-77
2021/11/22 01:07:02;;;;;;;12.90;9.87;;;3.90;99.90;;;;;;5012606;28;20175;-76
2021/11/22 01:09:28;;;;;;;11.47;9.20;;;3.90;99.90;;;;;;5013977;28;20658;-77
2021/11/22 01:11:53;;;;;;;12.20;9.53;;;3.90;99.90;;;;;;5011686;28;20203;-77
2021/11/22 01:14:19;;;;;;;10.07;9.00;;;3.90;99.90;;;;;;5013817;28;20225;-76
2021/11/22 01:16:45;;;;;;;11.03;8.83;;;4.00;99.90;;;;;;5012528;28;20259;-76
2021/11/22 01:19:11;;;;;;;13.47;10.17;;;3.90;99.90;;;;;;5013634;28;20206;-77
2021/11/22 01:21:37;;;;;;;9.27;8.27;;;3.90;99.90;;;;;;5013554;28;20182;-76
2021/11/22 01:24:03;;;;;;;9.90;7.97;;;3.90;99.90;;;;;;5012392;28;21008;-77
2021/11/22 01:26:28;;;;;;;8.90;8.00;;;3.90;99.90;;;;;;5013581;28;20251;-76
2021/11/22 01:28:54;;;;;;;11.67;9.47;;;3.80;99.90;;;;;;5012301;28;20202;-77
2021/11/22 01:31:20;;;;;;;40.77;19.50;;;3.80;99.90;;;;;;5013571;28;20176;-76
2021/11/22 01:33:46;;;;;;;9.27;8.30;;;3.80;99.90;;;;;;5013326;28;20206;-76
2021/11/22 01:36:12;;;;;;;17.40;10.83;;;3.80;99.90;;;;;;5013478;28;20179;-76
2021/11/22 01:38:37;;;;;;;9.43;7.83;;;3.90;99.90;;;;;;5010631;28;20562;-76
2021/11/22 01:41:05;;;;;;;21.23;10.90;;;3.90;99.90;;;;;;5011704;28;20568;-77
2021/11/22 01:43:32;;;;;;;33.87;15.07;;;3.90;99.90;;;;;;5011346;28;20202;-77
2021/11/22 01:45:58;;;;;;;15.93;8.80;;;3.90;99.90;;;;;;5011583;28;20164;-76
2021/11/22 01:48:23;;;;;;;64.90;21.27;;;3.80;99.90;;;;;;5010682;28;20525;-76
2021/11/22 01:50:52;;;;;;;18.37;9.83;;;3.90;99.90;;;;;;5011702;28;20189;-77
2021/11/22 01:53:20;;;;;;;9.03;8.13;;;3.90;99.90;;;;;;5010203;28;20199;-76
2021/11/22 01:55:45;;;;;;;15.00;13.40;;;3.80;99.90;;;;;;5011621;28;20964;-76
2021/11/22 01:58:11;;;;;;;9.33;7.97;;;3.90;99.90;;;;;;5005245;28;20210;-77
2021/11/22 02:00:41;;;;;;;8.07;7.07;;;3.80;99.90;;;;;;5013025;28;20165;-76
2021/11/22 02:03:08;;;;;;;10.50;8.37;;;3.80;99.90;;;;;;5011970;28;20191;-76
2021/11/22 02:05:35;;;;;;;8.97;7.87;;;3.90;99.90;;;;;;5013191;28;20222;-77
2021/11/22 02:08:01;;;;;;;8.40;7.50;;;3.90;99.90;;;;;;5011529;28;20582;-76
2021/11/22 02:10:28;;;;;;;9.77;7.97;;;3.70;99.90;;;;;;4999257;28;20641;-76
2021/11/22 02:12:54;;;;;;;10.43;9.20;;;3.70;99.90;;;;;;5013402;28;20191;-76
2021/11/22 02:15:21;;;;;;;11.37;8.90;;;3.70;99.90;;;;;;5013024;28;20183;-76
2021/11/22 02:17:48;;;;;;;12.23;9.97;;;3.70;99.90;;;;;;5011805;28;20198;-76
2021/11/22 02:20:33;;;;;;;12.93;10.23;;;3.80;99.90;;;;;;5013192;28;20176;-76
2021/11/22 02:23:02;;;;;;;11.90;9.57;;;3.70;99.90;;;;;;5013443;28;20206;-76
2021/11/22 02:25:30;;;;;;;13.97;10.83;;;4.50;99.90;;;;;;5015675;28;20650;-77
2021/11/22 02:27:57;;;;;;;13.67;10.37;;;3.70;99.90;;;;;;5016950;28;20258;-77
2021/11/22 02:30:31;;;;;;;14.33;10.63;;;3.90;99.90;;;;;;5016631;28;20187;-76
2021/11/22 02:33:12;;;;;;;16.47;11.90;;;3.70;99.90;;;;;;5016980;28;20218;-76
2021/11/22 02:35:44;;;;;;;21.97;14.27;;;3.70;99.90;;;;;;5016677;28;20207;-77
2021/11/22 02:38:10;;;;;;;23.97;15.10;;;3.70;99.90;;;;;;5016652;28;20224;-76
2021/11/22 02:40:36;;;;;;;27.60;16.77;;;3.80;99.90;;;;;;5016667;28;20206;-76
2021/11/22 02:43:01;;;;;;;25.00;14.97;;;3.80;99.90;;;;;;5016377;28;20191;-76
2021/11/22 02:45:27;;;;;;;26.07;16.73;;;3.70;99.90;;;;;;5006703;28;20206;-76
2021/11/22 02:47:53;;;;;;;28.90;16.00;;;3.70;99.90;;;;;;5003396;28;20669;-76
2021/11/22 02:50:19;;;;;;;28.57;16.33;;;3.70;99.90;;;;;;5015438;28;20525;-77
2021/11/22 02:52:46;;;;;;;31.80;18.10;;;3.80;99.90;;;;;;5015158;28;20204;-78
2021/11/22 02:55:15;;;;;;;30.87;17.77;;;3.70;99.90;;;;;;5016836;28;20207;-77
2021/11/22 02:57:41;;;;;;;29.30;16.10;;;3.80;99.90;;;;;;5016552;28;20193;-76
2021/11/22 03:00:17;;;;;;;36.37;19.80;;;3.70;99.90;;;;;;5015028;28;20172;-77
2021/11/22 03:02:43;;;;;;;26.90;15.43;;;3.70;99.90;;;;;;5015387;28;20196;-77
2021/11/22 03:05:09;;;;;;;24.50;15.77;;;3.60;99.90;;;;;;5016151;28;20254;-76
2021/11/22 03:07:36;;;;;;;26.03;15.77;;;3.70;99.90;;;;;;5014854;28;20196;-77
2021/11/22 03:10:04;;;;;;;26.47;16.00;;;3.60;99.90;;;;;;5016151;28;20171;-77
2021/11/22 03:12:30;;;;;;;37.47;19.13;;;3.60;99.90;;;;;;5015836;28;20218;-77
2021/11/22 03:14:56;;;;;;;28.20;16.73;;;3.60;99.90;;;;;;5015291;28;20697;-76
2021/11/22 03:17:21;;;;;;;28.47;16.20;;;3.70;99.90;;;;;;5015856;28;20171;-76
2021/11/22 03:19:47;;;;;;;26.80;16.33;;;3.70;99.90;;;;;;5015846;28;20199;-76
2021/11/22 03:22:13;;;;;;;24.73;15.70;;;3.60;99.90;;;;;;5015670;28;20242;-76
2021/11/22 03:24:38;;;;;;;25.20;15.30;;;3.60;99.90;;;;;;5014652;28;20171;-76
2021/11/22 03:27:04;;;;;;;33.17;19.17;;;3.60;99.90;;;;;;5015825;28;20176;-75
2021/11/22 03:29:30;;;;;;;26.37;16.00;;;3.60;99.90;;;;;;5015994;28;20225;-77
2021/11/22 03:31:57;;;;;;;19.17;13.37;;;3.60;99.90;;;;;;5014876;28;20206;-76
2021/11/22 03:34:23;;;;;;;38.50;24.67;;;3.60;99.90;;;;;;5015316;28;20309;-76
2021/11/22 03:36:50;;;;;;;22.23;14.83;;;3.60;99.90;;;;;;5015012;28;20205;-76
2021/11/22 03:39:24;;;;;;;28.60;17.57;;;3.70;99.90;;;;;;5015519;28;20609;-76
2021/11/22 03:41:51;;;;;;;25.30;16.10;;;3.60;99.90;;;;;;5014236;28;20174;-76
2021/11/22 03:44:17;;;;;;;26.30;15.13;;;3.60;99.90;;;;;;5015487;28;20255;-76
2021/11/22 03:46:51;;;;;;;20.80;14.40;;;3.60;99.90;;;;;;5015634;28;20597;-76
2021/11/22 03:49:18;;;;;;;26.23;15.60;;;3.70;99.90;;;;;;5015402;28;20171;-76
2021/11/22 03:51:44;;;;;;;28.87;18.27;;;3.60;99.90;;;;;;5014232;28;20586;-76
2021/11/22 03:54:10;;;;;;;26.53;16.67;;;3.60;99.90;;;;;;5015569;28;20179;-76
2021/11/22 03:56:37;;;;;;;24.37;15.50;;;3.70;99.90;;;;;;5015117;28;20175;-76
2021/11/22 03:59:04;;;;;;;23.10;14.50;;;3.70;99.90;;;;;;5013806;28;20215;-76
2021/11/22 04:01:30;;;;;;;23.93;14.63;;;3.70;99.90;;;;;;5015166;28;20175;-76
2021/11/22 04:03:56;;;;;;;23.20;15.07;;;3.70;99.90;;;;;;5014920;28;20279;-76
2021/11/22 04:06:21;;;;;;;22.47;14.47;;;3.70;99.90;;;;;;5014626;28;20259;-77
2021/11/22 04:08:47;;;;;;;25.53;14.73;;;3.70;99.90;;;;;;5013104;28;20194;-76
2021/11/22 04:11:13;;;;;;;22.57;14.23;;;3.80;99.90;;;;;;5013639;28;20179;-76
2021/11/22 04:13:39;;;;;;;20.73;14.03;;;3.70;99.90;;;;;;5012127;28;20251;-76
2021/11/22 04:16:05;;;;;;;24.80;14.87;;;3.70;99.90;;;;;;5007728;28;20213;-75
2021/11/22 04:18:31;;;;;;;23.07;13.37;;;3.70;99.90;;;;;;5014846;28;20222;-75
2021/11/22 04:20:57;;;;;;;18.33;13.13;;;3.70;99.90;;;;;;5014673;28;20175;-76
2021/11/22 04:23:23;;;;;;;20.17;12.53;;;3.70;99.90;;;;;;5013070;28;20219;-76
2021/11/22 04:25:49;;;;;;;21.50;13.77;;;3.80;99.90;;;;;;5012925;28;20168;-76
2021/11/22 04:28:15;;;;;;;16.97;12.53;;;3.70;99.90;;;;;;5014331;28;20202;-76
2021/11/22 04:30:41;;;;;;;17.03;12.20;;;3.70;99.90;;;;;;5013169;28;20173;-76
2021/11/22 04:33:08;;;;;;;16.27;12.03;;;3.70;99.90;;;;;;5013179;28;20241;-76
2021/11/22 04:35:33;;;;;;;22.27;15.07;;;3.70;99.90;;;;;;5013831;28;20250;-76
2021/11/22 04:38:00;;;;;;;19.73;11.37;;;3.70;99.90;;;;;;5013049;28;20195;-76
2021/11/22 04:40:25;;;;;;;19.53;12.17;;;3.70;99.90;;;;;;5012376;28;20175;-76
2021/11/22 04:42:52;;;;;;;14.17;11.00;;;3.70;99.90;;;;;;5013245;28;20183;-76
2021/11/22 04:45:21;;;;;;;14.57;10.93;;;3.70;99.90;;;;;;5012627;28;20206;-76
2021/11/22 04:47:48;;;;;;;16.70;11.77;;;3.80;99.90;;;;;;5001853;28;20260;-76
2021/11/22 04:50:15;;;;;;;15.07;11.23;;;3.70;99.90;;;;;;5011391;28;20167;-76
2021/11/22 04:52:44;;;;;;;27.20;18.43;;;3.60;99.90;;;;;;5014597;28;20538;-77
2021/11/22 04:55:10;;;;;;;16.13;11.00;;;3.60;99.90;;;;;;5012746;28;20205;-76
2021/11/22 04:57:36;;;;;;;35.90;21.97;;;3.50;99.90;;;;;;5003261;28;20254;-77
2021/11/22 05:00:05;;;;;;;18.33;11.83;;;3.60;99.90;;;;;;5007853;28;20233;-77
2021/11/22 05:02:30;;;;;;;16.33;11.40;;;3.60;99.90;;;;;;5009487;28;20191;-76
2021/11/22 05:04:56;;;;;;;14.10;10.33;;;3.50;99.90;;;;;;5013951;28;20646;-76
2021/11/22 05:07:22;;;;;;;14.00;10.53;;;3.60;99.90;;;;;;5013803;28;20262;-76
2021/11/22 05:09:47;;;;;;;14.87;10.27;;;3.80;99.90;;;;;;5012610;28;20179;-77
2021/11/22 05:12:14;;;;;;;14.30;10.87;;;3.50;99.90;;;;;;5013132;28;20205;-76
2021/11/22 05:14:40;;;;;;;12.37;10.13;;;3.50;99.90;;;;;;5014132;28;20185;-76
2021/11/22 05:17:06;;;;;;;14.07;10.67;;;3.50;99.90;;;;;;5012362;28;20177;-76
2021/11/22 05:19:33;;;;;;;14.27;10.13;;;3.50;99.90;;;;;;5013761;28;20207;-76
2021/11/22 05:22:00;;;;;;;14.33;10.10;;;3.50;99.90;;;;;;5012312;28;20230;-76
2021/11/22 05:24:27;;;;;;;14.80;10.27;;;3.50;99.90;;;;;;5012900;28;20216;-76
2021/11/22 05:26:54;;;;;;;12.97;9.80;;;3.50;99.90;;;;;;4996439;28;20263;-76
2021/11/22 05:29:20;;;;;;;13.43;9.80;;;3.60;99.90;;;;;;5007728;28;20180;-76
2021/11/22 05:31:47;;;;;;;12.70;10.33;;;3.50;99.90;;;;;;5006324;28;20174;-76
2021/11/22 05:34:13;;;;;;;13.83;10.17;;;3.50;99.90;;;;;;5011059;28;20195;-75
2021/11/22 05:36:38;;;;;;;12.10;9.30;;;3.60;99.90;;;;;;5010385;28;20171;-75
2021/11/22 05:39:05;;;;;;;13.80;10.70;;;3.50;99.90;;;;;;5011039;28;20253;-75
2021/11/22 05:41:32;;;;;;;13.60;9.90;;;3.40;99.90;;;;;;5011911;28;20207;-75
2021/11/22 05:43:57;;;;;;;14.40;10.83;;;3.60;99.90;;;;;;5010564;28;20199;-76
2021/11/22 05:46:23;;;;;;;12.23;9.73;;;3.40;99.90;;;;;;5012413;28;20221;-75
2021/11/22 05:48:49;;;;;;;15.20;10.73;;;3.50;99.90;;;;;;5012466;28;20587;-75
2021/11/22 05:51:15;;;;;;;11.63;9.30;;;3.60;99.90;;;;;;5011181;28;20179;-76
2021/11/22 05:53:43;;;;;;;12.90;9.90;;;3.50;99.90;;;;;;5012316;28;20199;-76
2021/11/22 05:56:09;;;;;;;12.37;9.93;;;3.50;99.90;;;;;;5012463;28;20176;-75
2021/11/22 05:58:35;;;;;;;13.60;10.10;;;3.50;99.90;;;;;;5006500;28;20637;-77
2021/11/22 06:01:04;;;;;;;13.73;10.20;;;3.60;99.90;;;;;;5010216;28;20198;-75
2021/11/22 06:03:30;;;;;;;13.60;9.70;;;3.50;99.90;;;;;;5016995;28;20272;-75
2021/11/22 06:05:57;;;;;;;14.63;10.37;;;3.50;99.90;;;;;;5015814;28;20177;-75
2021/11/22 06:08:23;;;;;;;13.57;10.03;;;3.50;99.90;;;;;;5017221;28;20656;-75
2021/11/22 06:10:49;;;;;;;13.37;9.73;;;3.60;99.90;;;;;;5017349;28;20225;-75
2021/11/22 06:13:16;;;;;;;14.17;10.53;;;3.50;99.90;;;;;;5017114;28;20280;-75
2021/11/22 06:15:42;;;;;;;13.77;10.30;;;3.50;99.90;;;;;;5010307;28;20612;-75
2021/11/22 06:18:09;;;;;;;15.37;10.07;;;3.50;99.90;;;;;;5016622;28;20234;-75
2021/11/22 06:20:35;;;;;;;15.77;10.47;;;3.50;99.90;;;;;;5015730;28;20171;-75
2021/11/22 06:23:01;;;;;;;13.37;9.83;;;3.60;99.90;;;;;;5038157;22;20287;-81
2021/11/22 06:25:27;;;;;;;12.37;9.53;;;3.60;99.90;;;;;;5024088;28;20171;-81
2021/11/22 06:27:53;;;;;;;12.93;9.87;;;3.60;99.90;;;;;;5027139;28;20207;-81
2021/11/22 06:30:19;;;;;;;11.13;9.03;;;3.50;99.90;;;;;;5023937;28;20183;-81
2021/11/22 06:32:45;;;;;;;13.03;10.20;;;3.50;99.90;;;;;;5024785;28;20241;-81
2021/11/22 06:35:11;;;;;;;12.67;9.90;;;3.50;99.90;;;;;;5023701;28;20189;-82
2021/11/22 06:37:37;;;;;;;13.37;10.60;;;3.50;99.90;;;;;;5025385;28;20180;-82
2021/11/22 06:40:08;;;;;;;14.80;9.97;;;3.50;99.90;;;;;;5023814;28;20536;-82
2021/11/22 06:42:34;;;;;;;11.87;9.63;;;3.50;99.90;;;;;;5024600;28;20752;-81
2021/11/22 06:45:00;;;;;;;14.00;10.73;;;3.50;99.90;;;;;;5024865;28;20204;-81
2021/11/22 06:47:26;;;;;;;14.83;10.63;;;3.60;99.90;;;;;;5024943;28;20204;-82
2021/11/22 06:49:53;;;;;;;14.17;10.27;;;3.60;99.90;;;;;;5023282;28;20177;-81
2021/11/22 06:52:21;;;;;;;18.90;10.93;;;3.60;99.90;;;;;;5021387;28;20201;-81
2021/11/22 06:54:50;;;;;;;15.23;11.27;;;3.60;99.90;;;;;;5021515;28;20216;-82
2021/11/22 06:57:16;;;;;;;16.87;11.30;;;3.60;99.90;;;;;;5021474;28;20218;-81
2021/11/22 06:59:43;;;;;;;15.77;11.13;;;3.60;99.90;;;;;;5022470;28;20196;-81
2021/11/22 07:02:14;;;;;;;16.10;11.70;;;3.60;99.90;;;;;;5022113;28;20171;-81
2021/11/22 07:04:41;;;;;;;15.37;11.23;;;3.60;99.90;;;;;;5022796;28;20176;-81
2021/11/22 07:07:07;;;;;;;14.07;10.60;;;3.60;99.90;;;;;;5020638;28;20174;-82
2021/11/22 07:09:34;;;;;;;15.13;11.40;;;3.60;99.90;;;;;;5020866;28;20206;-81
2021/11/22 07:11:59;;;;;;;14.80;10.80;;;3.50;99.90;;;;;;5019810;28;20207;-81
2021/11/22 07:14:25;;;;;;;15.93;11.10;;;3.50;99.90;;;;;;5021155;28;20194;-82
2021/11/22 07:16:53;;;;;;;16.17;11.33;;;4.50;99.90;;;;;;5018021;28;20177;-82
2021/11/22 07:19:18;;;;;;;16.83;12.00;;;3.50;99.90;;;;;;5020746;28;20288;-81
2021/11/22 07:21:44;;;;;;;18.07;11.90;;;3.50;99.90;;;;;;5020526;28;20211;-81
2021/11/22 07:24:10;;;;;;;16.30;11.37;;;3.60;99.90;;;;;;5021260;28;20207;-82
2021/11/22 07:26:36;;;;;;;18.03;11.83;;;3.80;99.90;;;;;;5022574;28;20172;-82
2021/11/22 07:29:03;;;;;;;15.33;11.00;;;4.00;99.90;;;;;;5023405;28;20184;-80
2021/11/22 07:31:28;;;;;;;17.17;11.30;;;3.70;99.90;;;;;;5022945;28;20552;-80
2021/11/22 07:33:54;;;;;;;17.07;10.90;;;3.70;99.90;;;;;;5023862;28;20199;-80
2021/11/22 07:36:20;;;;;;;16.47;11.90;;;3.70;99.90;;;;;;5021795;28;20175;-80
2021/11/22 07:38:45;;;;;;;16.37;11.77;;;3.70;99.90;;;;;;5023938;28;20230;-79
2021/11/22 07:41:11;;;;;;;17.23;12.03;;;3.60;99.90;;;;;;5020484;28;20187;-80
2021/11/22 07:43:37;;;;;;;19.00;12.53;;;3.60;99.90;;;;;;5022053;28;20191;-80
2021/11/22 07:46:02;;;;;;;23.83;13.13;;;3.60;99.90;;;;;;5021653;28;20533;-79
2021/11/22 07:48:28;;;;;;;18.83;12.17;;;3.60;99.90;;;;;;5022180;28;20173;-81
2021/11/22 07:50:54;;;;;;;18.53;12.87;;;3.60;99.90;;;;;;5022410;28;20195;-82
2021/11/22 07:53:20;;;;;;;19.37;13.27;;;3.60;99.90;;;;;;5011130;28;20214;-81
2021/11/22 07:55:47;;;;;;;17.53;12.13;;;4.00;99.90;;;;;;5014395;28;20184;-81
2021/11/22 07:58:13;;;;;;;20.73;14.20;;;3.60;99.90;;;;;;5023439;28;20253;-81
2021/11/22 08:00:39;;;;;;;19.50;12.67;;;3.80;99.90;;;;;;5022646;28;20642;-81
2021/11/22 08:03:04;;;;;;;19.97;13.33;;;4.00;99.90;;;;;;5024421;28;20195;-81
2021/11/22 08:05:32;;;;;;;16.17;12.20;;;3.80;99.90;;;;;;5014835;28;20175;-80
2021/11/22 08:07:58;;;;;;;16.53;11.63;;;3.70;99.90;;;;;;5003716;28;20559;-81
2021/11/22 08:10:28;;;;;;;19.53;12.27;;;3.80;99.90;;;;;;5021387;28;20210;-80
2021/11/22 08:12:59;;;;;;;17.90;12.30;;;3.80;99.90;;;;;;5021581;28;20208;-81
2021/11/22 08:15:27;;;;;;;16.93;11.40;;;4.00;99.90;;;;;;5022700;28;20241;-81
2021/11/22 08:17:54;;;;;;;18.83;12.90;;;3.90;99.90;;;;;;5021882;28;20202;-82
2021/11/22 08:20:22;;;;;;;17.23;12.23;;;3.90;99.90;;;;;;5018803;28;20175;-83
2021/11/22 08:22:49;;;;;;;19.13;12.37;;;4.10;99.90;;;;;;5022126;28;20218;-82
2021/11/22 08:25:17;;;;;;;17.17;12.27;;;4.00;99.90;;;;;;5023082;28;20215;-82
2021/11/22 08:27:43;;;;;;;19.73;11.83;;;4.00;99.90;;;;;;5023385;28;20179;-80
2021/11/22 08:30:12;;;;;;;17.40;12.37;;;4.00;99.90;;;;;;5022651;28;20183;-82
2021/11/22 08:32:38;;;;;;;17.03;12.07;;;4.00;99.90;;;;;;5023326;28;20283;-80
2021/11/22 08:35:06;;;;;;;17.83;12.00;;;4.00;99.90;;;;;;5022140;28;20181;-81
2021/11/22 08:37:32;;;;;;;19.93;12.63;;;4.00;99.90;;;;;;5021909;28;20182;-81
2021/11/22 08:39:57;;;;;;;20.87;12.43;;;4.20;99.90;;;;;;5018954;28;20235;-81
2021/11/22 08:42:23;;;;;;;18.03;12.10;;;4.10;99.90;;;;;;5021314;28;20179;-80
2021/11/22 08:44:51;;;;;;;18.50;12.50;;;4.00;99.90;;;;;;5022168;28;20200;-80
2021/11/22 08:47:16;;;;;;;15.37;10.93;;;4.30;99.90;;;;;;5020666;28;20208;-81
2021/11/22 08:49:42;;;;;;;18.40;12.33;;;4.20;99.90;;;;;;5012964;28;20190;-81
2021/11/22 08:52:10;;;;;;;16.73;11.17;;;5.00;99.90;;;;;;5011927;28;20187;-81
2021/11/22 08:54:36;;;;;;;14.57;10.77;;;4.30;99.90;;;;;;5015922;28;20697;-81
2021/11/22 08:57:03;;;;;;;14.53;10.77;;;4.30;99.90;;;;;;5016695;28;20186;-82
2021/11/22 08:59:28;;;;;;;20.13;11.30;;;4.30;99.90;;;;;;5012451;28;20730;-81
2021/11/22 09:01:54;;;;;;;14.47;11.03;;;4.30;99.90;;;;;;5014540;28;20180;-81
2021/11/22 09:04:23;;;;;;;20.00;13.73;;;4.30;99.90;;;;;;5015149;28;20203;-81
2021/11/22 09:06:52;;;;;;;16.73;11.13;;;4.40;99.90;;;;;;5019263;28;20171;-81
2021/11/22 09:09:20;;;;;;;14.50;10.23;;;4.40;99.90;;;;;;5016417;28;20690;-81
2021/11/22 09:11:46;;;;;;;14.13;10.37;;;4.40;99.90;;;;;;5015561;28;20172;-80
2021/11/22 09:14:13;;;;;;;22.00;14.03;;;4.40;99.90;;;;;;5014444;28;20214;-81
2021/11/22 09:16:40;;;;;;;26.00;15.20;;;4.40;99.90;;;;;;5015553;28;20172;-81
2021/11/22 09:19:06;;;;;;;16.43;11.10;;;4.50;99.90;;;;;;5016598;28;20203;-81
2021/11/22 09:21:31;;;;;;;14.87;10.40;;;4.50;99.90;;;;;;5013932;28;20346;-81
2021/11/22 09:23:59;;;;;;;16.23;10.10;;;4.80;99.90;;;;;;5012726;28;20591;-81
2021/11/22 09:26:24;;;;;;;15.13;10.60;;;4.80;99.90;;;;;;5016942;28;20208;-80
2021/11/22 09:28:50;;;;;;;14.20;10.33;;;4.50;99.90;;;;;;5010350;28;20186;-81
2021/11/22 09:31:17;;;;;;;34.77;19.47;;;4.90;99.90;;;;;;5015176;28;20194;-81
2021/11/22 09:33:44;;;;;;;19.43;11.97;;;4.60;99.90;;;;;;5010634;28;20271;-82
2021/11/22 09:36:11;;;;;;;12.43;9.67;;;4.60;99.90;;;;;;5015195;28;20218;-82
2021/11/22 09:38:37;;;;;;;14.10;9.43;;;4.60;99.90;;;;;;5003489;28;20286;-81
2021/11/22 09:41:03;;;;;;;11.13;9.43;;;4.60;99.90;;;;;;5024088;28;20194;-82
2021/11/22 09:43:29;;;;;;;12.07;9.17;;;4.60;99.90;;;;;;5001315;28;20201;-81
2021/11/22 09:45:56;;;;;;;9.67;8.57;;;5.10;99.90;;;;;;5013100;28;21049;-81
2021/11/22 09:48:21;;;;;;;18.03;12.83;;;4.60;99.90;;;;;;5013102;28;20203;-82
2021/11/22 09:50:47;;;;;;;13.13;10.20;;;4.80;99.90;;;;;;5011880;28;20648;-79
2021/11/22 09:53:13;;;;;;;10.10;8.53;;;4.60;99.90;;;;;;5010440;28;20212;-83
2021/11/22 09:55:39;;;;;;;10.43;7.80;;;4.70;99.90;;;;;;5011867;28;20183;-81
2021/11/22 09:58:08;;;;;;;10.03;8.40;;;4.90;99.90;;;;;;5010428;28;20204;-81
2021/11/22 10:00:37;;;;;;;9.17;7.40;;;5.10;99.90;;;;;;5010532;28;20207;-81
2021/11/22 10:03:07;;;;;;;8.17;6.90;;;4.70;99.90;;;;;;5012989;28;20192;-81
2021/11/22 10:05:36;;;;;;;8.27;7.47;;;5.20;99.90;;;;;;5018993;28;20180;-82
2021/11/22 10:08:07;;;;;;;8.77;7.23;;;4.80;99.90;;;;;;5019530;28;20198;-81
2021/11/22 10:10:45;;;;;;;7.60;6.80;;;4.70;99.90;;;;;;5016814;28;20214;-82
2021/11/22 10:13:21;;;;;;;7.27;5.83;;;4.80;99.90;;;;;;5015799;28;20203;-85
2021/11/22 10:15:47;;;;;;;6.47;5.83;;;4.90;99.90;;;;;;5014843;28;20184;-82
2021/11/22 10:18:22;;;;;;;6.53;5.93;;;4.80;99.90;;;;;;5015567;28;20197;-83
2021/11/22 10:20:51;;;;;;;8.37;7.17;;;4.90;99.90;;;;;;5011031;28;20187;-84
2021/11/22 10:23:23;;;;;;;6.70;5.67;;;5.00;99.90;;;;;;5006359;28;20212;-82
2021/11/22 10:25:59;;;;;;;5.87;5.27;;;5.10;99.90;;;;;;5013109;28;20182;-82
2021/11/22 10:28:29;;;;;;;5.40;4.90;;;5.00;99.90;;;;;;5008903;28;20228;-83
2021/11/22 10:31:00;;;;;;;6.20;5.60;;;5.00;99.90;;;;;;5006829;28;20181;-81
2021/11/22 10:33:29;;;;;;;5.50;5.00;;;5.10;99.90;;;;;;5015963;28;20211;-81
2021/11/22 10:35:58;;;;;;;5.43;4.93;;;5.10;99.90;;;;;;5010272;28;20182;-82
2021/11/22 10:38:34;;;;;;;5.13;4.63;;;5.10;99.90;;;;;;5013579;28;20290;-81
2021/11/22 10:41:07;;;;;;;5.00;4.50;;;5.10;99.90;;;;;;5004258;28;20247;-83
2021/11/22 10:43:43;;;;;;;4.90;4.50;;;5.10;99.90;;;;;;5024308;28;20202;-82
2021/11/22 10:46:10;;;;;;;4.67;4.27;;;5.20;99.90;;;;;;5013715;28;20168;-82
2021/11/22 10:48:37;;;;;;;5.53;5.03;;;5.30;99.90;;;;;;5015229;28;20258;-81
2021/11/22 10:51:26;;;;;;;6.70;5.97;;;5.20;99.90;;;;;;5014101;28;20175;-83
2021/11/22 10:54:05;;;;;;;7.47;5.57;;;5.30;99.90;;;;;;5010646;28;20207;-81
2021/11/22 10:56:44;;;;;;;3.70;3.40;;;5.20;99.90;;;;;;5017334;28;20222;-82
2021/11/22 10:59:12;;;;;;;7.57;5.33;;;5.10;99.90;;;;;;5005158;28;20195;-84
2021/11/22 11:01:52;;;;;;;5.17;4.17;;;5.10;99.90;;;;;;5017825;28;20181;-82
2021/11/22 11:04:26;;;;;;;7.23;4.87;;;5.20;99.90;;;;;;5016086;28;20289;-82
2021/11/22 11:07:10;;;;;;;8.10;5.07;;;5.10;99.90;;;;;;5017347;28;20359;-82
2021/11/22 11:09:52;;;;;;;5.00;3.90;;;5.20;99.90;;;;;;5014254;28;20644;-82
2021/11/22 11:12:24;;;;;;;10.90;6.60;;;5.20;99.90;;;;;;5014816;28;20568;-82
2021/11/22 11:14:52;;;;;;;24.20;11.47;;;5.30;99.90;;;;;;5016356;28;20186;-82
2021/11/22 11:17:35;;;;;;;12.70;6.70;;;5.70;99.90;;;;;;5015167;28;20176;-81
2021/11/22 11:20:11;;;;;;;6.60;5.20;;;5.30;99.90;;;;;;5013810;28;20197;-81
2021/11/22 11:22:37;;;;;;;4.17;3.53;;;5.40;99.90;;;;;;5016520;28;20214;-81
2021/11/22 11:25:05;;;;;;;6.80;4.47;;;5.40;99.90;;;;;;5013333;28;20214;-81
2021/11/22 11:27:34;;;;;;;33.20;15.93;;;5.40;99.90;;;;;;5010779;28;20168;-82
2021/11/22 11:30:01;;;;;;;5.13;4.13;;;5.40;99.90;;;;;;5006681;28;20205;-82
2021/11/22 11:32:28;;;;;;;17.30;8.70;;;5.40;99.90;;;;;;5011560;28;20196;-81
2021/11/22 11:34:57;;;;;;;4.40;3.40;;;5.90;99.90;;;;;;5016908;28;20530;-82
2021/11/22 11:37:47;;;;;;;3.17;2.90;;;5.50;99.90;;;;;;5015449;28;20691;-82
2021/11/22 11:40:25;;;;;;;13.57;8.17;;;5.50;99.90;;;;;;5014948;28;20180;-81
2021/11/22 11:43:22;;;;;;;8.33;5.73;;;5.50;99.90;;;;;;5018639;28;20204;-82
2021/11/22 11:46:08;;;;;;;3.53;2.97;;;5.60;99.90;;;;;;5010745;28;20200;-82
2021/11/22 11:49:00;;;;;;;4.73;4.07;;;5.60;99.90;;;;;;5009948;28;20209;-81
2021/11/22 11:51:51;;;;;;;10.20;5.93;;;5.70;99.90;;;;;;5013999;28;20187;-82
2021/11/22 11:54:23;;;;;;;4.87;3.63;;;5.60;99.90;;;;;;5013377;28;20675;-82
2021/11/22 11:57:01;;;;;;;3.93;3.40;;;5.60;99.90;;;;;;5010705;28;20178;-82
2021/11/22 11:59:38;;;;;;;3.70;2.93;;;5.60;99.90;;;;;;5012511;28;20196;-81
2021/11/22 12:02:27;;;;;;;5.57;4.27;;;5.60;99.90;;;;;;5012133;28;20670;-82
2021/11/22 12:05:41;;;;;;;3.27;2.97;;;5.60;99.90;;;;;;5018916;28;20260;-82
2021/11/22 12:08:31;;;;;;;6.90;5.73;;;5.70;99.90;;;;;;5004618;28;20199;-83
2021/11/22 12:11:00;;;;;;;7.03;5.13;;;5.70;99.90;;;;;;5009536;28;20188;-82
2021/11/22 12:13:54;;;;;;;11.40;7.03;;;5.80;99.90;;;;;;5009059;28;20296;-82
2021/11/22 12:16:44;;;;;;;7.00;4.73;;;5.80;99.90;;;;;;5005656;28;20176;-81
2021/11/22 12:19:38;;;;;;;30.57;12.87;;;5.70;99.90;;;;;;5004282;28;20204;-81
2021/11/22 12:22:16;;;;;;;7.33;5.60;;;5.70;99.90;;;;;;5008656;28;20169;-81
2021/11/22 12:24:45;;;;;;;8.87;6.47;;;6.00;99.90;;;;;;5010189;28;20179;-82
2021/11/22 12:27:29;;;;;;;6.70;5.57;;;5.80;99.90;;;;;;5012219;28;20227;-81
2021/11/22 12:29:57;;;;;;;9.77;7.00;;;5.80;99.90;;;;;;5008883;28;20185;-82
2021/11/22 12:32:34;;;;;;;7.10;5.90;;;5.90;99.90;;;;;;5012694;28;20246;-82
2021/11/22 12:35:04;;;;;;;4.97;4.47;;;5.90;99.90;;;;;;5015206;28;20181;-82
2021/11/22 12:37:33;;;;;;;21.23;12.40;;;5.90;99.90;;;;;;5010094;28;20181;-81
2021/11/22 12:40:15;;;;;;;5.43;4.93;;;5.90;99.90;;;;;;5016744;28;20266;-81
2021/11/22 12:42:59;;;;;;;7.67;6.10;;;6.00;99.90;;;;;;5030065;28;20218;-81
2021/11/22 12:45:25;;;;;;;17.83;10.33;;;5.90;99.90;;;;;;5024776;28;20175;-82
2021/11/22 12:47:50;;;;;;;17.57;10.13;;;6.10;99.90;;;;;;5011092;28;20271;-80
2021/11/22 12:50:16;;;;;;;13.77;8.07;;;6.00;99.90;;;;;;5012052;28;20187;-82